หน้าหลัก
METAR-TAF:

METAR-TAF

ท่าอากาศยาน :

สต็อกโฮล์ม, สวีเดน

ละติจูด: 59-21N, ลองจิจูด: 017-57E, ความสูง: 14 ม.

การสังเกตสภาพอากาศปัจจุบัน

รายงานได้ทำขึ้นเมื่อ 22 นาทีที่แล้ว ณ เวลา 01:20 UTC
ลม 5 นอตจากตะวันออก/ตะวันออกเฉียงเหนือ
อุณหภูมิ 17°C
ความชื้น 88%
ความกดอากาศ 1014 hPa
ทัศนวิสัย 10 กม. หรือมากกว่า

METAR: ESSB 130120Z AUTO 06005KT 9999 NCD 17/15 Q1014

เวลา: 03:42 (01:42 UTC)

การพยากรณ์

รายงานได้ทำขึ้นเมื่อ 8 ชั่วโมงและ 12 นาทีที่แล้ว ณ เวลา 17:30 UTC
การพยากรณ์มีผลตั้งแต่วันที่ 12 ณ เวลา 18 UTC จนถึงวันที่ 12 ณ เวลา 21 UTC
ลม 5 นอตจากตะวันตก/ตะวันตกเฉียงใต้
ทัศนวิสัย 10 กม. หรือมากกว่า
ไม่มีเมฆต่ำกว่า 1,500 ม. และไม่มีเมฆคิวมูโลนิมบัส

TAF: ESSB 121730Z 1218/1221 25005KT CAVOK

สังเกตการณ์สภาพอากาศและพยากรณ์อากาศของสนามบินมากกว่า 4000 แห่ง (รายงาน METAR และ TAF).

สถานีที่ดูได้จะแสดงไว้ด้วยจุดสีเหลืองและสีแดงบนแผนที่.

เลื่อนเมาส์ไปเหนือจุดเพื่อดูชื่อสถานี.

แล้วคลิกเพื่อดูสังเกตการณ์และการพยากรณ์สภาพอากาศ.

ในการเปลี่ยนแผนที่: คลิกที่ปุ่มสีเขียวที่มีกากบาทสีดำเพื่อซูมเข้า; ที่ปุ่มสีเขียวที่มีขีดเพื่อซูมออก; หรือที่ลูกศรสีเขียวเพื่อไปยังแผนที่ที่อยู่ติดกัน.


METAR-TAF: